• Join FlightAware (Why Join?)
  • Login
  • US Flag 
02:18AM EST


 

Airport Tracker/Info


-or-


 

Live Flight TrackerFlight Track Log ✈ CTL18 ✈ 09-Jul-2013 ✈ KBKL - KPTK

Flight Track Log - Related Links

Times and Time Zones

All times are in EDT time to prevent confusion due to time zone crossing. See the CTL18 flight status page for this flight to view local times or setup timezone preferences in your user account.

Time Position Orientation Groundspeed Altitude Reporting Facility
EDT Latitude Longitude Course Direction KTS MPH feet Rate Location/Type
09:53PM 41.5519 -81.7292 339° North 146 168 2,100  Level Cleveland Center
09:54PM 41.5786 -81.7683 312° West 148 170 2,600 480 Climbing Cleveland Center
09:55PM 41.5906 -81.8158 289° West 136 157 3,100 480 Climbing Cleveland Center
09:56PM 41.5964 -81.8686 278° West 136 157 3,600 420 Climbing Cleveland Center
09:57PM 41.5958 -81.9158 269° West 135 155 4,000 240 Climbing Cleveland Center
09:58PM 41.5992 -81.9686 275° West 147 169 4,100 60 Climbing Cleveland Center
09:59PM 41.6028 -82.0242 275° West 144 166 4,200  Climbing Cleveland Center
10:00PM 41.6083 -82.0800 278° West 142 163 4,100 -60 Descending Cleveland Center
10:01PM 41.6139 -82.1328 278° West 145 167 4,100  Level Cleveland Center
10:02PM 41.6194 -82.1858 278° West 146 168 4,100  Level Cleveland Center
10:03PM 41.6247 -82.2414 277° West 143 165 4,100  Level Cleveland Center
10:04PM 41.6303 -82.2917 278° West 143 165 4,100  Level Cleveland Center
10:05PM 41.6358 -82.3472 278° West 143 165 4,100  Level Cleveland Center
10:06PM 41.6392 -82.4003 275° West 147 169 4,100  Level Cleveland Center
10:07PM 41.6467 -82.4506 281° West 144 166 4,100  Level Cleveland Center
10:08PM 41.6522 -82.4894 281° West 145 167 4,100 -120 Level Cleveland Center
10:09PM 41.6597 -82.5369 282° West 145 167 4,000 -60 Descending Cleveland Center
10:10PM 41.6947 -82.5686 326° Northwest 159 183 4,000  Level Cleveland Center
10:11PM 41.7297 -82.5892 336° Northwest 159 183 4,000  Level Cleveland Center
10:12PM 41.7731 -82.6156 336° Northwest 158 182 4,100  Climbing Cleveland Center
10:13PM 41.8164 -82.6392 338° Northwest 159 183 4,100  Level Cleveland Center
10:14PM 41.8597 -82.6658 335° Northwest 159 183 4,100 -60 Level Cleveland Center
10:15PM 41.9053 -82.6897 339° North 159 183 4,000 -60 Descending Cleveland Center
10:16PM 41.9422 -82.7103 338° Northwest 160 184 4,000 -60 Level Cleveland Center
10:17PM 41.9814 -82.7339 336° Northwest 155 178 3,900  Descending Cleveland Center
10:18PM 42.0189 -82.7464 346° North 165 190 4,000 60 Climbing Cleveland Center
10:19PM 42.0683 -82.7733 338° Northwest 160 184 4,100  Climbing Cleveland Center
10:20PM 42.1117 -82.7944 340° North 165 190 4,100 -60 Level Cleveland Center
10:21PM 42.1464 -82.8319 321° Northwest 162 186 4,000 -60 Descending Cleveland Center
10:22PM 42.1853 -82.8669 326° Northwest 159 183 4,000 -60 Level Cleveland Center
10:23PM 42.2181 -82.9019 322° Northwest 157 181 3,900  Descending Cleveland Center
10:24PM 42.2528 -82.9311 328° Northwest 159 183 4,000  Climbing Cleveland Center
10:25PM 42.2897 -82.9606 329° Northwest 157 181 4,000 -60 Level Cleveland Center
10:26PM 42.3325 -83.0100 319° Northwest 160 184 3,900  Descending Cleveland Center
10:27PM 42.3714 -83.0425 328° Northwest 158 182 4,000  Climbing Cleveland Center
10:28PM 42.4019 -83.0744 322° Northwest 160 184 3,900  Descending Cleveland Center
10:29PM 42.4408 -83.1042 331° Northwest 161 185 4,000  Climbing Cleveland Center
10:30PM 42.4839 -83.1453 325° Northwest 164 189 3,900 -360 Descending Cleveland Center
10:31PM 42.5119 -83.1886 311° West 175 201 3,300 -600 Descending Cleveland Center
10:32PM 42.5467 -83.2267 321° Northwest 169 194 2,900 -360 Descending Cleveland Center
10:33PM 42.5850 -83.2764 316° Northwest 163 188 2,600 -240 Descending Cleveland Center
10:34PM 42.6194 -83.3172 319° Northwest 158 182 2,400 -360 Descending Cleveland Center
10:35PM 42.6497 -83.3639 311° West 150 173 1,900 -540 Descending Cleveland Center
10:36PM 42.6656 -83.3900 310° West 124 143 1,500 -600 Descending Cleveland Center
10:38PM 42.6500 -83.4167 304° West  Level FlightAware Approximate
10:45PM 42.6656 -83.4205 304° West  Level Estimated